Time;durP1;ratioP1;P1;durP2;ratioP2;P2;SDS_P1;SDS_P2;PMS_P1;PMS_P2;Temp;Humidity;BMP_temperature;BMP_pressure;BME280_temperature;BME280_humidity;BME280_pressure;Samples;Min_cycle;Max_cycle;Signal;HPM_P1;HPM_P2
2022/10/30 00:04:00;;;;;;;;;;;;;;;;;;10376647;22;28731;-76
2022/10/30 00:08:00;;;;;;;;;;;;;;;;;;10405329;22;27144;-75
2022/10/30 00:12:00;;;;;;;;;;;;;;;;;;10378722;22;28127;-76
2022/10/30 00:16:00;;;;;;;;;;;;;;;;;;10411545;22;27468;-76
2022/10/30 00:20:00;;;;;;;;;;;;;;;;;;10383531;22;28395;-77
2022/10/30 00:24:00;;;;;;;;;;;;;;;;;;10384313;22;28422;-76
2022/10/30 00:28:00;;;;;;;;;;;;;;;;;;10384335;22;28695;-75
2022/10/30 00:32:00;;;;;;;;;;;;;;;;;;10410892;22;27289;-76
2022/10/30 00:36:00;;;;;;;;;;;;;;;;;;10381760;22;28504;-76
2022/10/30 00:40:00;;;;;;;;;;;;;;;;;;10383695;22;28499;-76
2022/10/30 00:44:01;;;;;;;;;;;;;;;;;;10409878;22;27170;-76
2022/10/30 00:48:01;;;;;;;;;;;;;;;;;;10383457;22;29615;-76
2022/10/30 00:52:01;;;;;;;;;;;;;;;;;;10409470;22;27016;-77
2022/10/30 00:56:01;;;;;;;;;;;;;;;;;;10382732;22;28892;-75
2022/10/30 01:00:01;;;;;;;;;;;;;;;;;;10410752;22;27763;-76
2022/10/30 01:04:01;;;;;;;;;;;;;;;;;;10409462;22;27099;-76
2022/10/30 01:08:01;;;;;;;;;;;;;;;;;;10410743;22;27052;-75
2022/10/30 01:12:01;;;;;;;;;;;;;;;;;;10381701;22;28466;-76
2022/10/30 01:16:01;;;;;;;;;;;;;;;;;;10380704;22;29819;-76
2022/10/30 01:20:01;;;;;;;;;;;;;;;;;;10409803;22;27231;-76
2022/10/30 01:24:02;;;;;;;;;;;;;;;;;;10381686;22;30027;-77
2022/10/30 01:28:02;;;;;;;;;;;;;;;;;;10382325;22;28486;-77
2022/10/30 01:32:02;;;;;;;;;;;;;;;;;;10381164;22;28613;-77
2022/10/30 01:36:02;;;;;;;;;;;;;;;;;;10380167;22;28514;-76
2022/10/30 01:40:02;;;;;;;;;;;;;;;;;;10407447;22;26988;-77
2022/10/30 01:44:02;;;;;;;;;;;;;;;;;;10407369;22;26949;-77
2022/10/30 01:48:02;;;;;;;;;;;;;;;;;;10406895;22;27068;-77
2022/10/30 01:52:02;;;;;;;;;;;;;;;;;;10406816;22;27260;-77
2022/10/30 01:56:02;;;;;;;;;;;;;;;;;;10402326;22;28006;-76
2022/10/30 02:00:02;;;;;;;;;;;;;;;;;;10401808;22;27417;-78
2022/10/30 02:04:02;;;;;;;;;;;;;;;;;;10378635;22;29338;-77
2022/10/30 02:08:02;;;;;;;;;;;;;;;;;;10406760;22;26985;-77
2022/10/30 02:12:03;;;;;;;;;;;;;;;;;;10378549;22;28599;-76
2022/10/30 02:16:03;;;;;;;;;;;;;;;;;;10406907;22;27168;-78
2022/10/30 02:20:03;;;;;;;;;;;;;;;;;;10378778;22;28579;-76
2022/10/30 02:24:03;;;;;;;;;;;;;;;;;;10406888;22;27266;-75
2022/10/30 02:28:03;;;;;;;;;;;;;;;;;;10406315;22;27295;-76
2022/10/30 02:32:03;;;;;;;;;;;;;;;;;;10381849;22;28914;-76
2022/10/30 02:36:03;;;;;;;;;;;;;;;;;;10379096;22;28446;-76
2022/10/30 02:40:03;;;;;;;;;;;;;;;;;;10405767;22;27173;-77
2022/10/30 02:44:03;;;;;;;;;;;;;;;;;;10379658;22;28865;-76
2022/10/30 02:48:03;;;;;;;;;;;;;;;;;;10380008;22;28969;-77
2022/10/30 02:52:03;;;;;;;;;;;;;;;;;;10406131;22;27461;-76
2022/10/30 02:56:04;;;;;;;;;;;;;;;;;;10380626;22;28487;-76
2022/10/30 03:00:04;;;;;;;;;;;;;;;;;;10408200;22;27103;-75
2022/10/30 03:04:04;;;;;;;;;;;;;;;;;;10381157;22;28779;-76
2022/10/30 03:08:04;;;;;;;;;;;;;;;;;;10382048;22;28902;-75
2022/10/30 03:12:04;;;;;;;;;;;;;;;;;;10409101;22;28047;-76
2022/10/30 03:16:04;;;;;;;;;;;;;;;;;;10407698;22;27259;-77
2022/10/30 03:20:04;;;;;;;;;;;;;;;;;;10407515;22;27323;-76
2022/10/30 03:24:04;;;;;;;;;;;;;;;;;;10378422;22;28348;-77
2022/10/30 03:28:04;;;;;;;;;;;;;;;;;;10379407;22;28384;-77
2022/10/30 03:32:04;;;;;;;;;;;;;;;;;;10407737;22;27794;-76
2022/10/30 03:36:05;;;;;;;;;;;;;;;;;;10380957;22;28680;-77
2022/10/30 03:40:05;;;;;;;;;;;;;;;;;;10382839;22;29005;-77
2022/10/30 03:44:05;;;;;;;;;;;;;;;;;;10384157;22;28310;-77
2022/10/30 03:48:05;;;;;;;;;;;;;;;;;;10386578;22;28553;-77
2022/10/30 03:52:05;;;;;;;;;;;;;;;;;;10411105;22;27156;-77
2022/10/30 03:56:05;;;;;;;;;;;;;;;;;;10384562;22;28431;-76
2022/10/30 04:00:05;;;;;;;;;;;;;;;;;;10383246;22;28854;-77
2022/10/30 04:04:05;;;;;;;;;;;;;;;;;;10383577;22;29499;-76
2022/10/30 04:08:06;;;;;;;;;;;;;;;;;;10410174;22;27569;-77
2022/10/30 04:12:06;;;;;;;;;;;;;;;;;;10382930;22;26986;-77
2022/10/30 04:16:06;;;;;;;;;;;;;;;;;;10383414;22;29614;-77
2022/10/30 04:20:06;;;;;;;;;;;;;;;;;;10383547;22;28365;-77
2022/10/30 04:24:06;;;;;;;;;;;;;;;;;;10383467;22;28203;-77
2022/10/30 04:28:06;;;;;;;;;;;;;;;;;;10412474;22;27243;-77
2022/10/30 04:32:07;;;;;;;;;;;;;;;;;;10383673;22;28416;-76
2022/10/30 04:36:07;;;;;;;;;;;;;;;;;;10383221;22;28280;-77
2022/10/30 04:40:07;;;;;;;;;;;;;;;;;;10384599;22;28817;-75
2022/10/30 04:44:07;;;;;;;;;;;;;;;;;;10384709;22;28449;-76
2022/10/30 04:48:07;;;;;;;;;;;;;;;;;;10383699;22;28154;-78
2022/10/30 04:52:07;;;;;;;;;;;;;;;;;;10383363;22;28712;-77
2022/10/30 04:56:07;;;;;;;;;;;;;;;;;;10381502;22;28436;-76
2022/10/30 05:00:07;;;;;;;;;;;;;;;;;;10382399;22;30037;-77
2022/10/30 05:04:07;;;;;;;;;;;;;;;;;;10410524;22;26928;-77
2022/10/30 05:08:07;;;;;;;;;;;;;;;;;;10383105;22;28506;-77
2022/10/30 05:12:08;;;;;;;;;;;;;;;;;;10381579;22;28526;-76
2022/10/30 05:16:08;;;;;;;;;;;;;;;;;;10381560;22;28391;-76
2022/10/30 05:20:08;;;;;;;;;;;;;;;;;;10409078;22;27210;-76
2022/10/30 05:24:08;;;;;;;;;;;;;;;;;;10381549;22;28372;-77
2022/10/30 05:28:08;;;;;;;;;;;;;;;;;;10408627;22;27266;-78
2022/10/30 05:32:08;;;;;;;;;;;;;;;;;;10410312;22;27043;-76
2022/10/30 05:36:08;;;;;;;;;;;;;;;;;;10382692;22;28306;-76
2022/10/30 05:40:08;;;;;;;;;;;;;;;;;;10410174;22;27100;-77
2022/10/30 05:44:08;;;;;;;;;;;;;;;;;;10380876;22;28389;-76
2022/10/30 05:48:08;;;;;;;;;;;;;;;;;;10408774;22;27270;-77
2022/10/30 05:52:08;;;;;;;;;;;;;;;;;;10408799;22;27150;-78
2022/10/30 05:56:08;;;;;;;;;;;;;;;;;;10408559;22;27917;-76
2022/10/30 06:00:09;;;;;;;;;;;;;;;;;;10380903;22;27214;-76
2022/10/30 06:04:09;;;;;;;;;;;;;;;;;;10378463;22;28148;-77
2022/10/30 06:08:09;;;;;;;;;;;;;;;;;;10379545;22;28724;-77
2022/10/30 06:12:09;;;;;;;;;;;;;;;;;;10379581;22;28420;-77
2022/10/30 06:16:09;;;;;;;;;;;;;;;;;;10379568;22;28718;-77
2022/10/30 06:20:09;;;;;;;;;;;;;;;;;;10378719;22;28189;-75
2022/10/30 06:24:09;;;;;;;;;;;;;;;;;;10405837;22;27444;-77
2022/10/30 06:28:09;;;;;;;;;;;;;;;;;;10406314;22;27137;-76
2022/10/30 06:32:09;;;;;;;;;;;;;;;;;;10377766;22;28292;-76
2022/10/30 06:36:09;;;;;;;;;;;;;;;;;;10377673;22;28277;-76
2022/10/30 06:40:10;;;;;;;;;;;;;;;;;;10376901;22;28779;-76
2022/10/30 06:44:10;;;;;;;;;;;;;;;;;;10379640;22;28217;-75
2022/10/30 06:48:10;;;;;;;;;;;;;;;;;;10406088;22;28403;-76
2022/10/30 06:52:10;;;;;;;;;;;;;;;;;;10406209;22;27398;-76
2022/10/30 06:56:10;;;;;;;;;;;;;;;;;;10379098;22;29607;-76
2022/10/30 07:00:10;;;;;;;;;;;;;;;;;;10382061;22;28996;-77
2022/10/30 07:04:10;;;;;;;;;;;;;;;;;;10409943;22;27691;-74
2022/10/30 07:08:10;;;;;;;;;;;;;;;;;;10409659;22;27366;-76
2022/10/30 07:12:10;;;;;;;;;;;;;;;;;;10382445;22;28464;-77
2022/10/30 07:16:10;;;;;;;;;;;;;;;;;;10381684;22;29101;-77
2022/10/30 07:20:10;;;;;;;;;;;;;;;;;;10382115;22;28769;-77
2022/10/30 07:24:10;;;;;;;;;;;;;;;;;;10381248;22;29633;-75
2022/10/30 07:28:11;;;;;;;;;;;;;;;;;;10409221;22;27187;-77
2022/10/30 07:32:11;;;;;;;;;;;;;;;;;;10380533;22;28661;-76
2022/10/30 07:36:11;;;;;;;;;;;;;;;;;;10406650;22;27090;-76
2022/10/30 07:40:11;;;;;;;;;;;;;;;;;;10408801;22;27374;-76
2022/10/30 07:44:11;;;;;;;;;;;;;;;;;;10380590;22;28764;-76
2022/10/30 07:48:11;;;;;;;;;;;;;;;;;;10407159;22;27208;-76
2022/10/30 07:52:11;;;;;;;;;;;;;;;;;;10405988;22;27273;-76
2022/10/30 07:56:11;;;;;;;;;;;;;;;;;;10379400;22;28619;-76
2022/10/30 08:00:12;;;;;;;;;;;;;;;;;;10406293;22;27416;-75
2022/10/30 08:04:12;;;;;;;;;;;;;;;;;;10380567;22;28563;-75
2022/10/30 08:08:12;;;;;;;;;;;;;;;;;;10407155;22;27259;-76
2022/10/30 08:12:13;;;;;;;;;;;;;;;;;;10404343;22;27253;-75
2022/10/30 08:16:13;;;;;;;;;;;;;;;;;;10378453;22;28815;-76
2022/10/30 08:20:13;;;;;;;;;;;;;;;;;;10404289;22;27236;-77
2022/10/30 08:24:13;;;;;;;;;;;;;;;;;;10403823;22;27138;-77
2022/10/30 08:28:13;;;;;;;;;;;;;;;;;;10377396;22;28480;-77
2022/10/30 08:32:14;;;;;;;;;;;;;;;;;;10404537;22;27830;-77
2022/10/30 08:36:14;;;;;;;;;;;;;;;;;;10377418;22;29671;-77
2022/10/30 08:40:14;;;;;;;;;;;;;;;;;;10377712;22;28608;-76
2022/10/30 08:44:14;;;;;;;;;;;;;;;;;;10407355;22;27547;-76
2022/10/30 08:48:14;;;;;;;;;;;;;;;;;;10408546;22;27569;-76
2022/10/30 08:52:14;;;;;;;;;;;;;;;;;;10382226;22;28971;-76
2022/10/30 08:56:14;;;;;;;;;;;;;;;;;;10382197;22;28570;-77
2022/10/30 09:00:14;;;;;;;;;;;;;;;;;;10406748;22;27279;-76
2022/10/30 09:04:14;;;;;;;;;;;;;;;;;;10405496;22;27188;-76
2022/10/30 09:08:14;;;;;;;;;;;;;;;;;;10378648;22;28759;-77
2022/10/30 09:12:15;;;;;;;;;;;;;;;;;;10406368;22;27223;-78
2022/10/30 09:16:15;;;;;;;;;;;;;;;;;;10406153;22;27015;-77
2022/10/30 09:20:15;;;;;;;;;;;;;;;;;;10375086;22;28415;-79
2022/10/30 09:24:16;;;;;;;;;;;;;;;;;;10402155;22;27265;-77
2022/10/30 09:28:16;;;;;;;;;;;;;;;;;;10404164;22;27268;-77
2022/10/30 09:32:16;;;;;;;;;;;;;;;;;;10376919;22;28149;-78
2022/10/30 09:36:16;;;;;;;;;;;;;;;;;;10402831;22;27268;-78
2022/10/30 09:40:16;;;;;;;;;;;;;;;;;;10375429;22;29724;-78
2022/10/30 09:44:16;;;;;;;;;;;;;;;;;;10402221;22;27034;-77
2022/10/30 09:48:16;;;;;;;;;;;;;;;;;;10402591;22;28279;-77
2022/10/30 09:52:16;;;;;;;;;;;;;;;;;;10401837;22;27292;-77
2022/10/30 09:56:16;;;;;;;;;;;;;;;;;;10402650;22;27188;-78
2022/10/30 10:00:16;;;;;;;;;;;;;;;;;;10372807;22;29001;-77
2022/10/30 10:04:16;;;;;;;;;;;;;;;;;;10372873;22;28092;-77
2022/10/30 10:08:17;;;;;;;;;;;;;;;;;;10403762;22;27353;-77
2022/10/30 10:12:17;;;;;;;;;;;;;;;;;;10378110;22;28857;-78
2022/10/30 10:16:19;;;;;;;;;;;;;;;;;;10377616;22;29053;-75
2022/10/30 10:20:19;;;;;;;;;;;;;;;;;;10404182;22;27307;-76
2022/10/30 10:24:19;;;;;;;;;;;;;;;;;;10404774;22;27224;-77
2022/10/30 10:28:19;;;;;;;;;;;;;;;;;;10379104;22;28623;-76
2022/10/30 10:32:19;;;;;;;;;;;;;;;;;;10407201;22;27568;-78
2022/10/30 10:36:19;;;;;;;;;;;;;;;;;;10376055;22;28139;-77
2022/10/30 10:40:19;;;;;;;;;;;;;;;;;;10376112;22;28157;-77
2022/10/30 10:44:19;;;;;;;;;;;;;;;;;;10405339;22;27258;-78
2022/10/30 10:48:19;;;;;;;;;;;;;;;;;;10380268;22;27296;-77
2022/10/30 10:52:20;;;;;;;;;;;;;;;;;;10378870;22;29529;-78
2022/10/30 10:56:20;;;;;;;;;;;;;;;;;;10379371;22;28709;-76
2022/10/30 11:00:21;;;;;;;;;;;;;;;;;;10378862;22;28167;-77
2022/10/30 11:04:21;;;;;;;;;;;;;;;;;;10406945;22;28026;-77
2022/10/30 11:08:21;;;;;;;;;;;;;;;;;;10407980;22;27204;-76
2022/10/30 11:12:21;;;;;;;;;;;;;;;;;;10406754;22;27406;-77
2022/10/30 11:16:21;;;;;;;;;;;;;;;;;;10377582;22;28409;-77
2022/10/30 11:20:21;;;;;;;;;;;;;;;;;;10381877;22;28183;-76
2022/10/30 11:24:21;;;;;;;;;;;;;;;;;;10407886;22;27283;-76
2022/10/30 11:28:21;;;;;;;;;;;;;;;;;;10382660;22;28478;-77
2022/10/30 11:32:22;;;;;;;;;;;;;;;;;;10384085;22;29792;-76
2022/10/30 11:36:22;;;;;;;;;;;;;;;;;;10408757;22;28080;-77
2022/10/30 11:40:22;;;;;;;;;;;;;;;;;;10380843;22;28740;-77
2022/10/30 11:44:22;;;;;;;;;;;;;;;;;;10379500;22;29891;-75
2022/10/30 11:48:22;;;;;;;;;;;;;;;;;;10405250;22;27808;-75
2022/10/30 11:52:22;;;;;;;;;;;;;;;;;;10407124;22;27386;-75
2022/10/30 11:56:22;;;;;;;;;;;;;;;;;;10378824;22;28636;-75
2022/10/30 12:00:22;;;;;;;;;;;;;;;;;;10377644;22;28602;-76
2022/10/30 12:04:22;;;;;;;;;;;;;;;;;;10405839;22;27445;-76
2022/10/30 12:08:22;;;;;;;;;;;;;;;;;;10405286;22;27308;-76
2022/10/30 12:12:23;;;;;;;;;;;;;;;;;;10404463;22;27848;-76
2022/10/30 12:16:23;;;;;;;;;;;;;;;;;;10378996;22;28641;-76
2022/10/30 12:20:23;;;;;;;;;;;;;;;;;;10377280;22;28363;-76
2022/10/30 12:24:23;;;;;;;;;;;;;;;;;;10378013;22;28584;-76
2022/10/30 12:28:23;;;;;;;;;;;;;;;;;;10404613;22;27188;-76
2022/10/30 12:32:23;;;;;;;;;;;;;;;;;;10404151;22;27676;-76
2022/10/30 12:36:23;;;;;;;;;;;;;;;;;;10405757;22;27993;-76
2022/10/30 12:40:23;;;;;;;;;;;;;;;;;;10401493;22;27552;-75
2022/10/30 12:44:24;;;;;;;;;;;;;;;;;;10402334;22;27991;-75
2022/10/30 12:48:24;;;;;;;;;;;;;;;;;;10403913;22;27272;-75
2022/10/30 12:52:24;;;;;;;;;;;;;;;;;;10403646;22;27549;-75
2022/10/30 12:56:24;;;;;;;;;;;;;;;;;;10404953;22;26973;-76
2022/10/30 13:00:24;;;;;;;;;;;;;;;;;;10405381;22;27135;-77
2022/10/30 13:04:24;;;;;;;;;;;;;;;;;;10376290;22;28589;-77
2022/10/30 13:08:24;;;;;;;;;;;;;;;;;;10404645;22;27501;-78
2022/10/30 13:12:24;;;;;;;;;;;;;;;;;;10406687;22;26960;-78
2022/10/30 13:16:24;;;;;;;;;;;;;;;;;;10407960;22;27315;-77
2022/10/30 13:20:24;;;;;;;;;;;;;;;;;;10378112;22;28592;-77
2022/10/30 13:24:24;;;;;;;;;;;;;;;;;;10401670;22;27845;-76
2022/10/30 13:28:25;;;;;;;;;;;;;;;;;;10376873;22;28342;-76
2022/10/30 13:32:25;;;;;;;;;;;;;;;;;;10375567;22;29379;-76
2022/10/30 13:36:25;;;;;;;;;;;;;;;;;;10376326;22;28142;-77
2022/10/30 13:40:25;;;;;;;;;;;;;;;;;;10402001;22;27359;-75
2022/10/30 13:44:25;;;;;;;;;;;;;;;;;;10376286;22;28375;-76
2022/10/30 13:48:25;;;;;;;;;;;;;;;;;;10376778;22;28324;-76
2022/10/30 13:52:25;;;;;;;;;;;;;;;;;;10379433;22;28258;-76
2022/10/30 13:56:25;;;;;;;;;;;;;;;;;;10377644;22;29699;-76
2022/10/30 14:00:25;;;;;;;;;;;;;;;;;;10376988;22;28096;-75
2022/10/30 14:04:25;;;;;;;;;;;;;;;;;;10378591;22;28449;-76
2022/10/30 14:08:26;;;;;;;;;;;;;;;;;;10407517;22;27124;-77
2022/10/30 14:12:26;;;;;;;;;;;;;;;;;;10407871;22;28703;-76
2022/10/30 14:16:26;;;;;;;;;;;;;;;;;;10379004;22;28925;-76
2022/10/30 14:20:26;;;;;;;;;;;;;;;;;;10406034;22;27024;-76
2022/10/30 14:24:26;;;;;;;;;;;;;;;;;;10379502;22;28574;-76
2022/10/30 14:28:26;;;;;;;;;;;;;;;;;;10406983;22;27201;-74
2022/10/30 14:32:26;;;;;;;;;;;;;;;;;;10384021;22;29253;-74
2022/10/30 14:36:27;;;;;;;;;;;;;;;;;;10384734;22;28676;-74
2022/10/30 14:40:27;;;;;;;;;;;;;;;;;;10383264;22;28578;-75
2022/10/30 14:44:27;;;;;;;;;;;;;;;;;;10412175;22;27742;-74
2022/10/30 14:48:27;;;;;;;;;;;;;;;;;;10409571;22;27006;-75
2022/10/30 14:52:27;;;;;;;;;;;;;;;;;;10383412;22;28666;-75
2022/10/30 14:56:27;;;;;;;;;;;;;;;;;;10382741;22;28119;-75
2022/10/30 15:00:28;;;;;;;;;;;;;;;;;;10410375;22;27232;-74
2022/10/30 15:04:28;;;;;;;;;;;;;;;;;;10382992;22;28464;-75
2022/10/30 15:08:28;;;;;;;;;;;;;;;;;;10383240;22;28192;-75
2022/10/30 15:12:28;;;;;;;;;;;;;;;;;;10411238;22;27322;-74
2022/10/30 15:16:29;;;;;;;;;;;;;;;;;;10410915;22;26977;-75
2022/10/30 15:20:30;;;;;;;;;;;;;;;;;;10376859;22;28159;-75
2022/10/30 15:24:30;;;;;;;;;;;;;;;;;;10407865;22;27056;-75
2022/10/30 15:28:30;;;;;;;;;;;;;;;;;;10408231;22;27239;-74
2022/10/30 15:32:30;;;;;;;;;;;;;;;;;;10380971;22;28078;-73
2022/10/30 15:36:30;;;;;;;;;;;;;;;;;;10380309;22;29334;-75
2022/10/30 15:40:30;;;;;;;;;;;;;;;;;;10407723;22;27214;-75
2022/10/30 15:44:30;;;;;;;;;;;;;;;;;;10408143;22;27182;-74
2022/10/30 15:48:31;;;;;;;;;;;;;;;;;;10380670;22;27151;-75
2022/10/30 15:52:31;;;;;;;;;;;;;;;;;;10381699;22;28464;-74
2022/10/30 15:56:31;;;;;;;;;;;;;;;;;;10407015;22;27358;-74
2022/10/30 16:00:31;;;;;;;;;;;;;;;;;;10408172;22;27201;-74
2022/10/30 16:04:31;;;;;;;;;;;;;;;;;;10377253;22;28111;-73
2022/10/30 16:08:31;;;;;;;;;;;;;;;;;;10379385;22;28102;-74
2022/10/30 16:12:31;;;;;;;;;;;;;;;;;;10378120;22;29137;-73
2022/10/30 16:16:32;;;;;;;;;;;;;;;;;;10378207;22;28945;-74
2022/10/30 16:20:32;;;;;;;;;;;;;;;;;;10378881;22;28417;-74
2022/10/30 16:24:32;;;;;;;;;;;;;;;;;;10378451;22;28746;-74
2022/10/30 16:28:32;;;;;;;;;;;;;;;;;;10377729;22;28573;-75
2022/10/30 16:32:32;;;;;;;;;;;;;;;;;;10376240;22;29479;-74
2022/10/30 16:36:32;;;;;;;;;;;;;;;;;;10374759;22;28410;-74
2022/10/30 16:40:33;;;;;;;;;;;;;;;;;;10374444;22;28349;-74
2022/10/30 16:44:33;;;;;;;;;;;;;;;;;;10403218;22;27287;-74
2022/10/30 16:48:34;;;;;;;;;;;;;;;;;;10404032;22;27678;-74
2022/10/30 16:52:34;;;;;;;;;;;;;;;;;;10382470;22;28328;-74
2022/10/30 16:56:34;;;;;;;;;;;;;;;;;;10383427;22;28152;-75
2022/10/30 17:00:34;;;;;;;;;;;;;;;;;;10384420;22;28577;-73
2022/10/30 17:04:34;;;;;;;;;;;;;;;;;;10383333;22;28598;-73
2022/10/30 17:08:34;;;;;;;;;;;;;;;;;;10381078;22;28442;-74
2022/10/30 17:12:34;;;;;;;;;;;;;;;;;;10381965;22;28350;-74
2022/10/30 17:16:35;;;;;;;;;;;;;;;;;;10408107;22;27137;-74
2022/10/30 17:20:35;;;;;;;;;;;;;;;;;;10378088;22;28478;-75
2022/10/30 17:24:35;;;;;;;;;;;;;;;;;;10378393;22;28468;-74
2022/10/30 17:28:35;;;;;;;;;;;;;;;;;;10382834;22;28376;-72
2022/10/30 17:32:35;;;;;;;;;;;;;;;;;;10382969;22;28173;-74
2022/10/30 17:36:35;;;;;;;;;;;;;;;;;;10410580;22;27440;-74
2022/10/30 17:40:35;;;;;;;;;;;;;;;;;;10408620;22;27268;-75
2022/10/30 17:44:35;;;;;;;;;;;;;;;;;;10381375;22;28795;-75
2022/10/30 17:48:35;;;;;;;;;;;;;;;;;;10381776;22;28378;-74
2022/10/30 17:52:35;;;;;;;;;;;;;;;;;;10378661;22;28492;-75
2022/10/30 17:56:35;;;;;;;;;;;;;;;;;;10376371;22;28562;-76
2022/10/30 18:00:36;;;;;;;;;;;;;;;;;;10381723;22;28729;-75
2022/10/30 18:04:36;;;;;;;;;;;;;;;;;;10382120;22;28692;-74
2022/10/30 18:08:36;;;;;;;;;;;;;;;;;;10400830;22;27054;-74
2022/10/30 18:12:36;;;;;;;;;;;;;;;;;;10400272;22;27293;-74
2022/10/30 18:16:36;;;;;;;;;;;;;;;;;;10406601;22;27314;-75
2022/10/30 18:20:37;;;;;;;;;;;;;;;;;;10394182;22;27260;-75
2022/10/30 18:24:37;;;;;;;;;;;;;;;;;;10369633;22;28761;-74
2022/10/30 18:28:37;;;;;;;;;;;;;;;;;;10382197;22;28386;-74
2022/10/30 18:32:37;;;;;;;;;;;;;;;;;;10408803;22;27420;-74
2022/10/30 18:36:37;;;;;;;;;;;;;;;;;;10383008;22;28137;-75
2022/10/30 18:40:38;;;;;;;;;;;;;;;;;;10411150;22;27388;-75
2022/10/30 18:44:38;;;;;;;;;;;;;;;;;;10410225;22;27042;-75
2022/10/30 18:48:38;;;;;;;;;;;;;;;;;;10383302;22;28672;-75
2022/10/30 18:52:38;;;;;;;;;;;;;;;;;;10410491;22;27254;-75
2022/10/30 18:56:38;;;;;;;;;;;;;;;;;;10410012;22;27222;-75
2022/10/30 19:00:38;;;;;;;;;;;;;;;;;;10409894;22;27195;-75
2022/10/30 19:04:38;;;;;;;;;;;;;;;;;;10406599;22;27763;-75
2022/10/30 19:08:38;;;;;;;;;;;;;;;;;;10409868;22;27094;-74
2022/10/30 19:12:38;;;;;;;;;;;;;;;;;;10409341;22;27225;-74
2022/10/30 19:16:39;;;;;;;;;;;;;;;;;;10409329;22;27245;-75
2022/10/30 19:20:39;;;;;;;;;;;;;;;;;;10383041;22;28273;-75
2022/10/30 19:24:39;;;;;;;;;;;;;;;;;;10381669;22;28594;-75
2022/10/30 19:28:39;;;;;;;;;;;;;;;;;;10380304;22;28399;-75
2022/10/30 19:32:40;;;;;;;;;;;;;;;;;;10408018;22;27578;-74
2022/10/30 19:36:40;;;;;;;;;;;;;;;;;;10406966;22;27045;-73
2022/10/30 19:40:40;;;;;;;;;;;;;;;;;;10380230;22;28360;-76
2022/10/30 19:44:40;;;;;;;;;;;;;;;;;;10407541;22;27820;-74
2022/10/30 19:48:40;;;;;;;;;;;;;;;;;;10407571;22;27130;-75
2022/10/30 19:52:40;;;;;;;;;;;;;;;;;;10406985;22;27156;-75
2022/10/30 19:56:42;;;;;;;;;;;;;;;;;;10382015;22;28374;-75
2022/10/30 20:00:42;;;;;;;;;;;;;;;;;;10387929;22;29419;-74
2022/10/30 20:04:42;;;;;;;;;;;;;;;;;;10387360;22;28111;-75
2022/10/30 20:08:43;;;;;;;;;;;;;;;;;;10387833;22;28818;-75
2022/10/30 20:12:43;;;;;;;;;;;;;;;;;;10414976;22;27310;-75
2022/10/30 20:16:43;;;;;;;;;;;;;;;;;;10413281;22;27297;-76
2022/10/30 20:20:43;;;;;;;;;;;;;;;;;;10412640;22;27215;-74
2022/10/30 20:24:43;;;;;;;;;;;;;;;;;;10411207;22;27339;-75
2022/10/30 20:28:43;;;;;;;;;;;;;;;;;;10411972;22;27187;-75
2022/10/30 20:32:43;;;;;;;;;;;;;;;;;;10410936;22;27942;-75
2022/10/30 20:36:43;;;;;;;;;;;;;;;;;;10414144;22;27486;-75
2022/10/30 20:40:43;;;;;;;;;;;;;;;;;;10413951;22;27216;-74
2022/10/30 20:44:43;;;;;;;;;;;;;;;;;;10386629;22;28510;-75
2022/10/30 20:48:43;;;;;;;;;;;;;;;;;;10387264;22;28328;-75
2022/10/30 20:52:44;;;;;;;;;;;;;;;;;;10413340;22;28004;-76
2022/10/30 20:56:44;;;;;;;;;;;;;;;;;;10413412;22;27314;-74
2022/10/30 21:00:44;;;;;;;;;;;;;;;;;;10385476;22;28216;-75
2022/10/30 21:04:44;;;;;;;;;;;;;;;;;;10413812;22;27274;-74
2022/10/30 21:08:44;;;;;;;;;;;;;;;;;;10386995;22;28420;-75
2022/10/30 21:12:44;;;;;;;;;;;;;;;;;;10413404;22;28256;-75
2022/10/30 21:16:44;;;;;;;;;;;;;;;;;;10415110;22;27212;-73
2022/10/30 21:20:44;;;;;;;;;;;;;;;;;;10385832;22;27266;-74
2022/10/30 21:24:44;;;;;;;;;;;;;;;;;;10413663;22;27816;-74
2022/10/30 21:28:44;;;;;;;;;;;;;;;;;;10387131;22;28152;-74
2022/10/30 21:32:45;;;;;;;;;;;;;;;;;;10414034;22;27011;-74
2022/10/30 21:36:45;;;;;;;;;;;;;;;;;;10386176;22;29246;-73
2022/10/30 21:40:45;;;;;;;;;;;;;;;;;;10409568;22;27477;-74
2022/10/30 21:44:45;;;;;;;;;;;;;;;;;;10411181;22;28365;-75
2022/10/30 21:48:45;;;;;;;;;;;;;;;;;;10413891;22;27311;-75
2022/10/30 21:52:45;;;;;;;;;;;;;;;;;;10383706;22;29904;-75
2022/10/30 21:56:45;;;;;;;;;;;;;;;;;;10411988;22;27175;-75
2022/10/30 22:00:45;;;;;;;;;;;;;;;;;;10412603;22;27441;-75
2022/10/30 22:04:45;;;;;;;;;;;;;;;;;;10411882;22;27420;-75
2022/10/30 22:08:45;;;;;;;;;;;;;;;;;;10411523;22;27353;-75
2022/10/30 22:12:45;;;;;;;;;;;;;;;;;;10414305;22;27326;-74
2022/10/30 22:16:48;;;;;;;;;;;;;;;;;;10411943;22;48803;-74
2022/10/30 22:20:48;;;;;;;;;;;;;;;;;;10386057;22;29392;-75
2022/10/30 22:24:48;;;;;;;;;;;;;;;;;;10387147;22;28417;-75
2022/10/30 22:28:48;;;;;;;;;;;;;;;;;;10414328;22;28525;-75
2022/10/30 22:32:48;;;;;;;;;;;;;;;;;;10387584;22;28342;-74
2022/10/30 22:36:48;;;;;;;;;;;;;;;;;;10387853;22;28004;-75
2022/10/30 22:40:48;;;;;;;;;;;;;;;;;;10386983;22;28951;-74
2022/10/30 22:44:48;;;;;;;;;;;;;;;;;;10385701;22;29003;-76
2022/10/30 22:48:48;;;;;;;;;;;;;;;;;;10412899;22;27197;-75
2022/10/30 22:52:48;;;;;;;;;;;;;;;;;;10411121;22;27144;-75
2022/10/30 22:56:48;;;;;;;;;;;;;;;;;;10410259;22;27167;-74
2022/10/30 23:00:49;;;;;;;;;;;;;;;;;;10409575;22;27133;-75
2022/10/30 23:04:49;;;;;;;;;;;;;;;;;;10407884;22;27332;-74
2022/10/30 23:08:49;;;;;;;;;;;;;;;;;;10381740;22;27034;-75
2022/10/30 23:12:49;;;;;;;;;;;;;;;;;;10380774;22;28601;-75
2022/10/30 23:16:49;;;;;;;;;;;;;;;;;;10407406;22;27399;-74
2022/10/30 23:20:49;;;;;;;;;;;;;;;;;;10408767;22;27066;-75
2022/10/30 23:24:49;;;;;;;;;;;;;;;;;;10380399;22;28836;-75
2022/10/30 23:28:49;;;;;;;;;;;;;;;;;;10386294;22;28624;-75
2022/10/30 23:32:49;;;;;;;;;;;;;;;;;;10413590;22;27296;-75
2022/10/30 23:36:49;;;;;;;;;;;;;;;;;;10410253;22;27589;-74
2022/10/30 23:40:50;;;;;;;;;;;;;;;;;;10385641;22;28834;-74
2022/10/30 23:44:50;;;;;;;;;;;;;;;;;;10413000;22;27293;-75
2022/10/30 23:48:50;;;;;;;;;;;;;;;;;;10385867;22;29950;-75
2022/10/30 23:52:50;;;;;;;;;;;;;;;;;;10385832;22;28627;-75
2022/10/30 23:56:50;;;;;;;;;;;;;;;;;;10412241;22;27955;-75
